Pagina principale
METAR-TAF:

METAR-TAF

Aeroporti :

Alessandria-El Nouzha, Egitto

latitudine: 31-12N, longitudine: 029-57E, altezza: -2 m

Osservazione

Il bollettino è stato emesso 27 minuti fa, alle 23:00 UTC
Vento 8 kt da nord-ovest
Temperature 25°C
Umidità 89%
Pressione 1008 hPa
Visibilità 10 km o più
Nubi sparse ad un'altezza di 2000 ft

METAR: HEAX 222300Z 31008KT 9999 SCT020 25/23 Q1008 NOSIG

Ora: 01:27 (23:27 UTC)

Previsione

Il bollettino è stato emesso 6 ore e 27 minuti fa, alle 17:00 UTC
Previsione valida dal 22 alle 18 UTC al 23 alle 24 UTC
Vento 12 kt da nord/nord-ovest
Visibilità 10 km o più
Nubi sparse ad un'altezza di 2000 ft

TAF: HEAX 221700Z 2218/2324 33012KT 9999 SCT020

Osservazioni e previsioni meteorologiche di più di 4000 aeroporti (messaggi METAR e TAF).

Le stazioni disponibili sono rappresentate dai dischi gialli e rossi sulla carta.

Puntare il mouse per vedere il nome della stazione.

Clicca sopra per visualizzare le osservazioni e previsioni meteorologiche.

Per cambiare la mappa : fare clic sui pulsanti verdi con una croce nera per ingrandire, il pulsante verde con un trattino per diminuire, o sulla freccia verde per le mappe adiacenti.


METAR-TAF: